EST,Max TemperatureF,Mean TemperatureF,Min TemperatureF,Max Dew PointF,MeanDew PointF,Min DewpointF,Max Humidity, Mean Humidity, Min Humidity, Max Sea Level PressureIn, Mean Sea Level PressureIn, Min Sea Level PressureIn, Max VisibilityMiles, Mean VisibilityMiles, Min VisibilityMiles, Max Wind SpeedMPH, Mean Wind SpeedMPH, Max Gust SpeedMPH,PrecipitationIn, CloudCover, Events, WindDirDegrees
2011-11-1,59,44,29,35,30,27,92,61,30,30.37,30.32,30.25,10,10,7,8,2,13,0.00,0,,180
2011-11-2,63,50,36,35,30,21,82,51,20,30.40,30.29,30.19,10,10,10,10,6,15,0.00,0,,170
2011-11-3,65,52,38,44,33,24,70,47,23,30.20,30.07,29.87,10,10,10,12,5,28,0.03,1,Rain,136
2011-11-4,53,45,37,43,38,28,86,70,53,30.20,30.03,29.82,10,10,10,21,7,24,0.01,4,,1
2011-11-5,52,42,31,28,20,14,78,50,22,30.38,30.31,30.21,10,10,10,17,7,24,0.00,0,,125
2011-11-6,60,48,35,37,30,21,75,53,31,30.47,30.39,30.34,10,10,10,15,7,25,0.00,0,,135
2011-11-7,65,50,34,41,38,33,92,65,37,30.43,30.36,30.27,10,10,10,10,2,15,0.00,0,,160
2011-11-8,69,54,39,39,36,27,85,56,26,30.31,30.21,30.12,10,10,10,13,6,20,0.00,0,,134
2011-11-9,67,57,47,54,46,37,93,64,34,30.12,30.01,29.94,10,10,5,14,8,20,0.11,4,Rain,187
2011-11-10,54,44,33,52,33,20,93,73,53,30.04,29.98,29.93,10,9,2,26,9,35,T,7,Snow,306
2011-11-11,41,35,29,25,20,17,69,54,38,30.15,30.05,29.95,10,10,2,21,10,26,T,5,Snow,281
2011-11-12,59,46,33,27,20,16,56,40,23,30.23,30.16,30.11,10,10,10,21,9,26,0.00,0,,216
2011-11-13,61,54,47,39,28,17,51,38,24,30.11,30.04,29.97,10,10,10,22,10,31,0.00,1,,194
2011-11-14,71,63,55,54,49,40,72,58,44,29.98,29.92,29.86,10,10,10,26,15,40,0.00,2,,223
2011-11-15,64,57,50,54,51,48,96,82,67,30.02,29.95,29.82,10,7,2,18,7,24,0.51,8,Rain,24
2011-11-16,61,53,44,54,45,43,93,93,92,29.94,29.90,29.78,10,9,3,18,8,26,1.17,8,Rain,348
2011-11-17,45,38,32,45,35,30,92,91,89,30.09,30.00,29.93,10,5,1,12,8,22,0.13,8,Rain-Snow,344
2011-11-18,35,,35,16,16,16,44,44,44,30.29,30.29,30.29,10,10,10,9,9,,0.00,0,,140
2011-11-19,58,42,25,38,34,29,61,50,38,30.34,30.26,30.23,10,10,10,20,9,28,0.00,0,,182
2011-11-20,62,55,48,55,49,39,93,79,64,30.27,30.22,30.17,10,9,2,21,7,26,0.13,6,Rain,228
2011-11-21,60,57,54,57,55,52,100,92,84,30.25,30.20,30.15,10,7,1,10,5,15,0.10,8,Rain,243
2011-11-22,64,59,53,56,54,51,93,83,72,30.15,29.99,29.79,10,9,4,22,9,38,0.51,7,Rain,168
2011-11-23,58,47,36,55,44,34,93,85,76,30.29,29.95,29.70,10,8,2,24,12,33,0.29,7,Rain,288
2011-11-24,54,44,33,36,34,29,100,73,46,30.43,30.33,30.25,10,5,0,8,4,12,0.00,2,Fog,246
2011-11-25,63,48,32,32,21,12,82,48,14,30.40,30.31,30.22,10,10,10,15,5,21,0.00,0,,203
2011-11-26,60,47,34,42,29,16,61,45,29,30.33,30.23,30.12,10,10,10,14,5,18,0.00,0,,170
2011-11-27,63,57,50,47,44,42,77,65,52,30.11,30.00,29.92,10,10,10,21,11,30,0.00,1,,159
2011-11-28,60,58,56,55,52,48,93,78,62,29.97,29.85,29.67,10,9,3,26,12,38,0.07,7,Rain,134
2011-11-29,59,47,34,55,39,29,96,77,58,29.76,29.68,29.59,10,8,2,22,10,38,0.70,7,Rain-Snow,219
2011-11-30,37,33,29,30,29,24,92,81,69,30.26,29.89,29.70,10,4,1,20,9,25,0.02,8,Snow,273